Time;durP1;ratioP1;P1;durP2;ratioP2;P2;SDS_P1;SDS_P2;PMS_P1;PMS_P2;Temp;Humidity;BMP_temperature;BMP_pressure;BME280_temperature;BME280_humidity;BME280_pressure;Samples;Min_cycle;Max_cycle;Signal;HPM_P1;HPM_P2
2023/06/19 00:00:15;;;;;;;8.30;7.38;;;;;;;;;;4914725;28;20051;-84
2023/06/19 00:02:40;;;;;;;8.10;7.00;;;;;;;;;;4931236;28;20191;-84
2023/06/19 00:05:07;;;;;;;9.98;7.35;;;;;;;;;;4916953;28;20043;-84
2023/06/19 00:07:33;;;;;;;8.13;7.32;;;;;;;;;;4915261;28;20525;-84
2023/06/19 00:09:59;;;;;;;9.80;7.53;;;;;;;;;;4915208;28;20498;-84
2023/06/19 00:12:24;;;;;;;9.32;7.25;;;;;;;;;;4931234;28;20118;-84
2023/06/19 00:14:49;;;;;;;8.90;6.72;;;;;;;;;;4933455;28;20066;-84
2023/06/19 00:17:16;;;;;;;8.70;6.97;;;;;;;;;;4916843;28;20039;-84
2023/06/19 00:19:42;;;;;;;8.98;7.05;;;;;;;;;;4909659;28;20090;-84
2023/06/19 00:22:07;;;;;;;8.55;7.47;;;;;;;;;;4930936;28;20035;-84
2023/06/19 00:24:33;;;;;;;8.43;7.00;;;;;;;;;;4923241;28;20048;-84
2023/06/19 00:27:02;;;;;;;7.75;6.80;;;;;;;;;;4915025;28;20163;-84
2023/06/19 00:29:31;;;;;;;9.07;7.13;;;;;;;;;;4934551;28;20570;-83
2023/06/19 00:31:57;;;;;;;8.32;7.07;;;;;;;;;;4919021;28;20028;-83
2023/06/19 00:34:26;;;;;;;8.35;7.32;;;;;;;;;;4915449;29;20039;-83
2023/06/19 00:36:56;;;;;;;9.43;7.50;;;;;;;;;;4918268;29;20536;-83
2023/06/19 00:39:22;;;;;;;8.77;7.70;;;;;;;;;;4915552;29;20575;-84
2023/06/19 00:41:48;;;;;;;9.27;7.50;;;;;;;;;;4903572;29;20517;-83
2023/06/19 00:44:13;;;;;;;8.68;7.68;;;;;;;;;;4911753;28;20047;-85
2023/06/19 00:46:40;;;;;;;9.63;7.78;;;;;;;;;;4911949;28;20102;-84
2023/06/19 00:49:07;;;;;;;11.18;7.70;;;;;;;;;;4914801;28;20039;-84
2023/06/19 00:51:32;;;;;;;8.05;7.10;;;;;;;;;;4903229;28;20039;-84
2023/06/19 00:54:18;;;;;;;9.60;8.00;;;;;;;;;;4919153;29;20046;-84
2023/06/19 00:56:44;;;;;;;8.30;7.40;;;;;;;;;;4873974;29;20051;-84
2023/06/19 00:59:25;;;;;;;8.40;6.97;;;;;;;;;;4870356;29;20053;-83
2023/06/19 01:01:50;;;;;;;9.10;7.00;;;;;;;;;;4844488;29;20107;-84
2023/06/19 01:04:19;;;;;;;8.30;7.30;;;;;;;;;;4842348;29;20053;-84
2023/06/19 01:06:58;;;;;;;10.23;7.45;;;;;;;;;;4855532;29;20541;-84
2023/06/19 01:09:27;;;;;;;8.00;6.95;;;;;;;;;;4871700;29;20494;-83
2023/06/19 01:12:08;;;;;;;9.23;7.82;;;;;;;;;;4861796;29;20045;-83
2023/06/19 01:14:47;;;;;;;8.93;7.70;;;;;;;;;;4843693;29;20061;-83
2023/06/19 01:17:13;;;;;;;9.43;7.70;;;;;;;;;;4856780;29;20044;-83
2023/06/19 01:19:38;;;;;;;10.50;7.85;;;;;;;;;;4836214;29;20176;-83
2023/06/19 01:22:04;;;;;;;9.75;7.68;;;;;;;;;;4864839;29;20041;-83
2023/06/19 01:24:30;;;;;;;10.63;8.25;;;;;;;;;;4859466;29;20123;-84
2023/06/19 01:26:56;;;;;;;9.50;8.00;;;;;;;;;;4856273;29;20559;-84
2023/06/19 01:29:21;;;;;;;9.30;8.10;;;;;;;;;;4874565;29;20092;-83
2023/06/19 01:31:57;;;;;;;9.80;8.32;;;;;;;;;;4872791;29;20072;-83
2023/06/19 01:34:24;;;;;;;8.73;7.55;;;;;;;;;;4903248;29;20389;-83
2023/06/19 01:36:49;;;;;;;9.43;8.43;;;;;;;;;;4922372;28;20039;-83
2023/06/19 01:39:17;;;;;;;8.65;7.75;;;;;;;;;;4902772;28;20045;-83
2023/06/19 01:41:43;;;;;;;9.80;8.40;;;;;;;;;;4932788;28;20047;-83
2023/06/19 01:44:09;;;;;;;9.35;8.00;;;;;;;;;;4903520;28;20511;-83
2023/06/19 01:46:34;;;;;;;9.18;8.18;;;;;;;;;;4879083;29;20040;-83
2023/06/19 01:48:59;;;;;;;9.30;8.27;;;;;;;;;;4928934;28;20491;-83
2023/06/19 01:51:25;;;;;;;9.50;7.97;;;;;;;;;;4911559;29;20436;-83
2023/06/19 01:53:50;;;;;;;9.80;8.52;;;;;;;;;;4929747;28;20036;-83
2023/06/19 01:56:16;;;;;;;9.90;8.70;;;;;;;;;;4894883;29;20032;-83
2023/06/19 01:58:50;;;;;;;9.32;8.32;;;;;;;;;;4917776;28;20134;-83
2023/06/19 02:01:15;;;;;;;9.65;8.52;;;;;;;;;;4913917;28;20055;-83
2023/06/19 02:03:41;;;;;;;9.88;8.32;;;;;;;;;;4903082;28;20068;-83
2023/06/19 02:06:07;;;;;;;9.93;7.82;;;;;;;;;;4913320;28;20555;-83
2023/06/19 02:08:32;;;;;;;10.52;8.85;;;;;;;;;;4915695;28;20035;-84
2023/06/19 02:10:57;;;;;;;11.13;8.77;;;;;;;;;;4917523;28;20106;-83
2023/06/19 02:13:23;;;;;;;10.43;8.50;;;;;;;;;;4933609;28;20509;-83
2023/06/19 02:16:01;;;;;;;9.32;8.30;;;;;;;;;;4900693;28;20031;-84
2023/06/19 02:18:26;;;;;;;11.10;8.52;;;;;;;;;;4913582;28;20484;-84
2023/06/19 02:20:52;;;;;;;10.30;9.05;;;;;;;;;;4936004;28;20098;-83
2023/06/19 02:23:18;;;;;;;10.15;8.43;;;;;;;;;;4933800;28;20522;-83
2023/06/19 02:25:45;;;;;;;9.98;8.45;;;;;;;;;;4931945;28;20043;-84
2023/06/19 02:28:11;;;;;;;;;;;;;;;;;;4913856;28;20042;-83
2023/06/19 02:30:36;;;;;;;10.40;9.30;;;;;;;;;;4921729;28;20548;-83
2023/06/19 02:33:01;;;;;;;10.52;8.75;;;;;;;;;;4911102;28;20690;-83
2023/06/19 02:35:27;;;;;;;11.20;9.38;;;;;;;;;;4918599;28;20043;-84
2023/06/19 02:37:52;;;;;;;10.68;8.73;;;;;;;;;;4920293;29;20143;-85
2023/06/19 02:40:17;;;;;;;10.93;9.02;;;;;;;;;;4920236;28;20036;-83
2023/06/19 02:42:43;;;;;;;11.85;9.00;;;;;;;;;;4922461;28;20040;-83
2023/06/19 02:45:09;;;;;;;11.18;9.55;;;;;;;;;;4931820;28;20044;-85
2023/06/19 02:47:34;;;;;;;11.27;9.48;;;;;;;;;;4910699;28;20039;-83
2023/06/19 02:50:02;;;;;;;10.48;8.93;;;;;;;;;;4928137;28;20376;-84
2023/06/19 02:52:28;;;;;;;10.90;9.27;;;;;;;;;;4916861;28;20052;-83
2023/06/19 02:54:53;;;;;;;11.48;9.73;;;;;;;;;;4908177;29;20530;-83
2023/06/19 02:57:19;;;;;;;10.38;9.27;;;;;;;;;;4910475;28;20043;-83
2023/06/19 02:59:45;;;;;;;10.88;9.50;;;;;;;;;;4920348;29;20063;-83
2023/06/19 03:02:11;;;;;;;11.38;9.93;;;;;;;;;;4911255;29;20552;-84
2023/06/19 03:04:36;;;;;;;11.38;10.18;;;;;;;;;;4910038;29;20085;-84
2023/06/19 03:07:02;;;;;;;11.25;9.68;;;;;;;;;;4907415;28;20039;-83
2023/06/19 03:09:28;;;;;;;11.82;9.98;;;;;;;;;;4915206;28;20435;-82
2023/06/19 03:11:54;;;;;;;10.73;9.63;;;;;;;;;;4915723;29;20395;-83
2023/06/19 03:14:20;;;;;;;12.30;9.63;;;;;;;;;;4913886;29;20103;-83
2023/06/19 03:16:45;;;;;;;12.45;10.20;;;;;;;;;;4902555;28;20472;-83
2023/06/19 03:19:10;;;;;;;12.13;10.40;;;;;;;;;;4915687;29;20500;-83
2023/06/19 03:21:36;;;;;;;11.05;9.48;;;;;;;;;;4920835;28;20043;-83
2023/06/19 03:24:01;;;;;;;10.60;9.50;;;;;;;;;;4933820;28;20063;-83
2023/06/19 03:26:27;;;;;;;11.07;9.85;;;;;;;;;;4922110;28;20478;-83
2023/06/19 03:28:52;;;;;;;10.98;9.60;;;;;;;;;;4920705;28;20131;-84
2023/06/19 03:31:18;;;;;;;11.13;9.93;;;;;;;;;;4908838;29;20067;-84
2023/06/19 03:33:44;;;;;;;10.45;9.35;;;;;;;;;;4917777;28;20044;-84
2023/06/19 03:36:11;;;;;;;12.55;9.80;;;;;;;;;;4917678;28;20378;-84
2023/06/19 03:38:37;;;;;;;11.05;9.82;;;;;;;;;;4915696;28;20043;-84
2023/06/19 03:41:02;;;;;;;10.80;9.68;;;;;;;;;;4910264;28;20526;-84
2023/06/19 03:43:28;;;;;;;11.60;9.75;;;;;;;;;;4896117;29;20056;-84
2023/06/19 03:45:53;;;;;;;10.65;9.55;;;;;;;;;;4904537;29;21012;-85
2023/06/19 03:48:18;;;;;;;11.25;9.40;;;;;;;;;;4901944;28;20107;-84
2023/06/19 03:50:44;;;;;;;10.55;9.23;;;;;;;;;;4934130;28;20140;-84
2023/06/19 03:53:18;;;;;;;11.23;9.57;;;;;;;;;;4936396;28;20039;-85
2023/06/19 03:55:44;;;;;;;11.25;9.50;;;;;;;;;;4935872;28;20043;-85
2023/06/19 03:58:22;;;;;;;12.02;10.00;;;;;;;;;;4932864;28;20049;-84
2023/06/19 04:00:48;;;;;;;11.32;10.13;;;;;;;;;;4906751;29;20102;-84
2023/06/19 04:03:13;;;;;;;11.23;9.10;;;;;;;;;;4911698;28;20047;-84
2023/06/19 04:05:41;;;;;;;10.02;8.80;;;;;;;;;;4915127;28;20454;-81
2023/06/19 04:08:06;;;;;;;11.05;9.23;;;;;;;;;;4932998;28;20139;-81
2023/06/19 04:10:32;;;;;;;10.68;9.57;;;;;;;;;;4910822;28;20532;-82
2023/06/19 04:12:58;;;;;;;11.88;10.52;;;;;;;;;;4911565;28;20051;-82
2023/06/19 04:15:23;;;;;;;11.75;10.02;;;;;;;;;;4932516;28;20115;-81
2023/06/19 04:17:49;;;;;;;10.82;9.50;;;;;;;;;;4918957;29;20039;-81
2023/06/19 04:20:24;;;;;;;11.45;9.13;;;;;;;;;;4913890;28;20200;-82
2023/06/19 04:22:50;;;;;;;12.23;9.55;;;;;;;;;;4907105;28;20043;-83
2023/06/19 04:25:15;;;;;;;10.50;9.40;;;;;;;;;;4931741;28;20055;-83
2023/06/19 04:27:41;;;;;;;10.23;9.13;;;;;;;;;;4918361;28;20391;-82
2023/06/19 04:30:12;;;;;;;10.65;9.35;;;;;;;;;;4914025;28;20046;-83
2023/06/19 04:32:40;;;;;;;13.65;9.88;;;;;;;;;;4928884;28;20078;-83
2023/06/19 04:35:10;;;;;;;11.95;9.50;;;;;;;;;;4916639;28;20047;-82
2023/06/19 04:37:38;;;;;;;12.55;10.88;;;;;;;;;;4918185;28;20062;-81
2023/06/19 04:40:05;;;;;;;11.75;9.43;;;;;;;;;;4918560;28;20078;-82
2023/06/19 04:42:31;;;;;;;11.25;10.02;;;;;;;;;;4897326;29;20130;-84
2023/06/19 04:44:59;;;;;;;12.45;10.02;;;;;;;;;;4896336;28;20578;-83
2023/06/19 04:47:24;;;;;;;10.50;9.40;;;;;;;;;;4902487;29;20035;-82
2023/06/19 04:50:10;;;;;;;11.35;9.55;;;;;;;;;;4917541;28;20070;-83
2023/06/19 04:52:35;;;;;;;10.57;9.48;;;;;;;;;;4853571;29;20131;-82
2023/06/19 04:55:01;;;;;;;10.88;9.38;;;;;;;;;;4873340;29;20139;-82
2023/06/19 04:57:26;;;;;;;10.77;9.48;;;;;;;;;;4858487;29;20131;-83
2023/06/19 04:59:52;;;;;;;13.00;10.25;;;;;;;;;;4854330;29;20132;-82
2023/06/19 05:02:20;;;;;;;10.95;9.60;;;;;;;;;;4858666;29;20049;-82
2023/06/19 05:04:45;;;;;;;12.48;10.15;;;;;;;;;;4859917;29;20398;-83
2023/06/19 05:07:12;;;;;;;11.45;10.20;;;;;;;;;;4858535;29;20041;-82
2023/06/19 05:09:38;;;;;;;10.87;9.50;;;;;;;;;;4840946;29;20600;-83
2023/06/19 05:12:04;;;;;;;11.15;9.98;;;;;;;;;;4837332;29;20049;-83
2023/06/19 05:14:29;;;;;;;11.30;10.10;;;;;;;;;;4858325;29;20176;-83
2023/06/19 05:16:54;;;;;;;12.43;10.45;;;;;;;;;;4854862;29;20041;-83
2023/06/19 05:19:20;;;;;;;11.98;9.98;;;;;;;;;;4860170;29;20253;-83
2023/06/19 05:21:45;;;;;;;12.13;10.13;;;;;;;;;;4866675;29;21180;-83
2023/06/19 05:24:13;;;;;;;12.40;10.15;;;;;;;;;;4868504;29;20048;-82
2023/06/19 05:26:39;;;;;;;11.75;10.13;;;;;;;;;;4848451;29;20423;-81
2023/06/19 05:29:08;;;;;;;10.88;9.57;;;;;;;;;;4868456;29;20040;-82
2023/06/19 05:31:33;;;;;;;10.52;9.43;;;;;;;;;;4903426;28;20090;-82
2023/06/19 05:33:59;;;;;;;11.13;9.45;;;;;;;;;;4932285;28;20067;-83
2023/06/19 05:36:24;;;;;;;10.90;9.43;;;;;;;;;;4921803;28;20036;-84
2023/06/19 05:38:49;;;;;;;12.68;10.02;;;;;;;;;;4921172;28;20044;-83
2023/06/19 05:41:16;;;;;;;11.48;10.27;;;;;;;;;;4912750;28;20047;-82
2023/06/19 05:43:41;;;;;;;11.35;9.60;;;;;;;;;;4915874;28;20492;-82
2023/06/19 05:46:07;;;;;;;10.65;9.30;;;;;;;;;;4921361;28;20061;-82
2023/06/19 05:48:37;;;;;;;12.05;10.05;;;;;;;;;;4916708;28;20046;-82
2023/06/19 05:51:03;;;;;;;12.60;9.93;;;;;;;;;;4915104;28;20055;-82
2023/06/19 05:53:30;;;;;;;11.93;9.93;;;;;;;;;;4930962;28;20031;-82
2023/06/19 05:55:56;;;;;;;12.75;10.05;;;;;;;;;;4923118;28;20130;-82
2023/06/19 05:58:21;;;;;;;11.90;10.35;;;;;;;;;;4922750;29;20414;-81
2023/06/19 06:00:47;;;;;;;11.07;9.80;;;;;;;;;;4903166;28;20039;-81
2023/06/19 06:03:13;;;;;;;10.70;9.60;;;;;;;;;;4909132;28;20260;-81
2023/06/19 06:05:50;;;;;;;11.13;9.60;;;;;;;;;;4928232;28;20071;-80
2023/06/19 06:08:17;;;;;;;10.10;8.90;;;;;;;;;;4917962;28;20047;-79
2023/06/19 06:10:43;;;;;;;10.27;9.20;;;;;;;;;;4934313;28;20078;-78
2023/06/19 06:13:09;;;;;;;11.85;9.52;;;;;;;;;;4919138;28;20035;-79
2023/06/19 06:15:34;;;;;;;10.32;8.68;;;;;;;;;;4929600;28;20031;-79
2023/06/19 06:18:00;;;;;;;12.20;9.82;;;;;;;;;;4909372;28;20047;-79
2023/06/19 06:20:25;;;;;;;11.15;9.40;;;;;;;;;;4913580;28;20051;-78
2023/06/19 06:22:51;;;;;;;10.98;9.60;;;;;;;;;;4906632;29;20051;-78
2023/06/19 06:25:16;;;;;;;13.95;10.05;;;;;;;;;;4903390;29;20075;-78
2023/06/19 06:27:42;;;;;;;11.13;9.88;;;;;;;;;;4915191;28;20832;-78
2023/06/19 06:30:08;;;;;;;11.65;9.93;;;;;;;;;;4910427;28;20032;-78
2023/06/19 06:32:33;;;;;;;10.90;9.32;;;;;;;;;;4902128;28;20551;-79
2023/06/19 06:34:59;;;;;;;11.95;9.63;;;;;;;;;;4929119;28;20143;-79
2023/06/19 06:37:25;;;;;;;11.18;9.60;;;;;;;;;;4931323;28;20591;-80
2023/06/19 06:39:51;;;;;;;12.55;10.10;;;;;;;;;;4919902;29;20051;-79
2023/06/19 06:42:17;;;;;;;12.10;9.48;;;;;;;;;;4906980;28;20831;-79
2023/06/19 06:44:42;;;;;;;12.50;10.23;;;;;;;;;;4913567;28;20060;-80
2023/06/19 06:47:08;;;;;;;11.32;9.80;;;;;;;;;;4911595;28;20217;-79
2023/06/19 06:49:33;;;;;;;11.15;9.82;;;;;;;;;;4930323;28;20039;-79
2023/06/19 06:52:01;;;;;;;11.50;9.80;;;;;;;;;;4899093;28;20047;-79
2023/06/19 06:54:26;;;;;;;11.77;9.98;;;;;;;;;;4914092;28;20055;-80
2023/06/19 06:56:56;;;;;;;11.73;9.30;;;;;;;;;;4909636;28;20031;-80
2023/06/19 06:59:21;;;;;;;14.13;10.18;;;;;;;;;;4928802;28;20043;-79
2023/06/19 07:01:46;;;;;;;10.38;8.93;;;;;;;;;;4912950;28;20055;-80
2023/06/19 07:04:12;;;;;;;11.60;9.60;;;;;;;;;;4907099;28;20054;-79
2023/06/19 07:06:37;;;;;;;11.05;9.52;;;;;;;;;;4934384;28;20444;-79
2023/06/19 07:09:03;;;;;;;13.20;10.00;;;;;;;;;;4935727;28;20040;-80
2023/06/19 07:11:29;;;;;;;12.10;9.57;;;;;;;;;;4909502;28;20447;-80
2023/06/19 07:13:54;;;;;;;11.60;10.20;;;;;;;;;;4912898;29;20502;-79
2023/06/19 07:16:19;;;;;;;10.90;9.80;;;;;;;;;;4912789;28;20039;-79
2023/06/19 07:18:47;;;;;;;11.50;9.07;;;;;;;;;;4925415;29;20223;-79
2023/06/19 07:21:13;;;;;;;;;;;;;;;;;;4921256;28;20122;-79
2023/06/19 07:23:40;;;;;;;12.48;9.68;;;;;;;;;;4914465;29;20375;-79
2023/06/19 07:26:05;;;;;;;11.13;9.38;;;;;;;;;;4924956;28;20044;-80
2023/06/19 07:28:30;;;;;;;13.55;9.82;;;;;;;;;;4934966;28;20062;-79
2023/06/19 07:30:56;;;;;;;10.43;9.20;;;;;;;;;;4913758;29;20039;-79
2023/06/19 07:33:21;;;;;;;9.70;8.70;;;;;;;;;;4907193;29;20036;-80
2023/06/19 07:35:47;;;;;;;11.07;9.02;;;;;;;;;;4916662;28;20040;-81
2023/06/19 07:38:12;;;;;;;9.95;8.38;;;;;;;;;;4919375;28;20050;-80
2023/06/19 07:40:38;;;;;;;11.10;8.55;;;;;;;;;;4916119;28;20436;-79
2023/06/19 07:43:04;;;;;;;11.55;9.38;;;;;;;;;;4916214;29;20035;-81
2023/06/19 07:45:29;;;;;;;12.57;8.77;;;;;;;;;;4933806;28;20047;-80
2023/06/19 07:47:56;;;;;;;13.18;8.50;;;;;;;;;;4905570;29;20027;-80
2023/06/19 07:50:22;;;;;;;8.43;7.53;;;;;;;;;;4910868;28;20035;-80
2023/06/19 07:52:48;;;;;;;12.23;8.25;;;;;;;;;;4931912;28;20117;-80
2023/06/19 07:55:13;;;;;;;8.40;7.43;;;;;;;;;;4915962;28;20127;-80
2023/06/19 07:57:47;;;;;;;9.02;7.55;;;;;;;;;;4915792;28;20513;-79
2023/06/19 08:00:14;;;;;;;10.25;7.80;;;;;;;;;;4912446;28;20062;-80
2023/06/19 08:02:41;;;;;;;11.63;7.75;;;;;;;;;;4917468;29;20094;-80
2023/06/19 08:05:08;;;;;;;8.98;7.50;;;;;;;;;;4917018;28;20143;-79
2023/06/19 08:07:33;;;;;;;9.50;7.68;;;;;;;;;;4931159;28;20189;-82
2023/06/19 08:09:59;;;;;;;9.52;8.05;;;;;;;;;;4932468;28;20040;-80
2023/06/19 08:12:24;;;;;;;9.52;7.30;;;;;;;;;;4933411;28;20046;-80
2023/06/19 08:14:50;;;;;;;8.70;7.28;;;;;;;;;;4928072;29;20135;-81
2023/06/19 08:17:15;;;;;;;10.15;7.40;;;;;;;;;;4916114;28;20043;-80
2023/06/19 08:19:43;;;;;;;8.40;7.30;;;;;;;;;;4909867;28;20062;-80
2023/06/19 08:22:09;;;;;;;8.55;6.65;;;;;;;;;;4917360;28;20863;-79
2023/06/19 08:24:39;;;;;;;8.88;7.15;;;;;;;;;;4915169;28;20166;-80
2023/06/19 08:27:05;;;;;;;7.10;6.30;;;;;;;;;;4909036;28;20643;-82
2023/06/19 08:29:30;;;;;;;8.40;6.80;;;;;;;;;;4920328;28;20036;-80
2023/06/19 08:32:19;;;;;;;7.65;6.82;;;;;;;;;;4915466;29;20042;-79
2023/06/19 08:34:44;;;;;;;8.02;6.63;;;;;;;;;;4848453;29;20033;-80
2023/06/19 08:37:11;;;;;;;11.50;7.05;;;;;;;;;;4860608;29;20401;-80
2023/06/19 08:39:38;;;;;;;9.60;7.20;;;;;;;;;;4853118;29;20586;-80
2023/06/19 08:42:09;;;;;;;9.27;7.45;;;;;;;;;;4846140;29;20505;-80
2023/06/19 08:44:35;;;;;;;9.45;8.38;;;;;;;;;;4831832;29;20496;-81
2023/06/19 08:47:04;;;;;;;9.35;7.80;;;;;;;;;;4832137;29;20421;-80
2023/06/19 08:49:31;;;;;;;8.18;7.25;;;;;;;;;;4848002;29;20529;-80
2023/06/19 08:51:57;;;;;;;8.07;7.20;;;;;;;;;;4852321;29;20443;-80
2023/06/19 08:54:22;;;;;;;10.82;8.20;;;;;;;;;;4867863;29;20041;-80
2023/06/19 08:56:48;;;;;;;8.43;7.53;;;;;;;;;;4836922;29;20825;-80
2023/06/19 08:59:20;;;;;;;9.27;7.32;;;;;;;;;;4836696;29;20047;-79
2023/06/19 09:01:51;;;;;;;9.52;8.10;;;;;;;;;;4835224;29;20044;-81
2023/06/19 09:04:23;;;;;;;8.63;7.07;;;;;;;;;;4832005;29;20541;-81
2023/06/19 09:06:53;;;;;;;10.02;7.93;;;;;;;;;;4832112;29;20144;-81
2023/06/19 09:09:22;;;;;;;9.55;7.55;;;;;;;;;;4852311;29;20041;-81
2023/06/19 09:12:01;;;;;;;8.82;7.45;;;;;;;;;;4873446;28;20040;-81
2023/06/19 09:14:40;;;;;;;9.68;7.88;;;;;;;;;;4914497;28;20518;-81
2023/06/19 09:17:07;;;;;;;10.55;7.90;;;;;;;;;;4933219;28;20127;-82
2023/06/19 09:19:36;;;;;;;8.93;7.43;;;;;;;;;;4917707;28;20099;-81
2023/06/19 09:22:06;;;;;;;9.40;7.93;;;;;;;;;;4931880;28;20448;-81
2023/06/19 09:24:43;;;;;;;9.45;7.85;;;;;;;;;;4917774;28;20525;-82
2023/06/19 09:27:13;;;;;;;;;;;;;;;;;;4933108;28;20103;-82
2023/06/19 09:29:43;;;;;;;9.00;7.57;;;;;;;;;;4919430;28;20292;-81
2023/06/19 09:32:20;;;;;;;10.60;7.95;;;;;;;;;;4931360;28;20044;-82
2023/06/19 09:34:50;;;;;;;9.57;7.55;;;;;;;;;;4933060;28;20039;-82
2023/06/19 09:37:22;;;;;;;9.50;8.02;;;;;;;;;;4896668;29;20552;-82
2023/06/19 09:39:52;;;;;;;10.82;8.63;;;;;;;;;;4931709;28;20039;-82
2023/06/19 09:42:20;;;;;;;9.82;7.85;;;;;;;;;;4903823;28;20378;-83
2023/06/19 09:44:45;;;;;;;;;;;;;;;;;;4909315;28;20114;-82
2023/06/19 09:47:22;;;;;;;10.00;8.32;;;;;;;;;;4922091;28;19926;-83
2023/06/19 09:49:50;;;;;;;9.82;8.57;;;;;;;;;;4930053;28;20093;-83
2023/06/19 09:52:16;;;;;;;10.10;8.98;;;;;;;;;;4905618;28;20079;-82
2023/06/19 09:54:43;;;;;;;11.43;8.70;;;;;;;;;;4911080;28;20040;-82
2023/06/19 09:57:10;;;;;;;14.60;9.13;;;;;;;;;;4924643;28;20062;-82
2023/06/19 09:59:38;;;;;;;9.70;8.70;;;;;;;;;;4931013;28;20035;-81
2023/06/19 10:02:05;;;;;;;;;;;;;;;;;;4921689;28;20142;-82
2023/06/19 10:04:30;;;;;;;11.45;9.55;;;;;;;;;;4901180;29;20388;-79
2023/06/19 10:06:57;;;;;;;10.25;9.15;;;;;;;;;;4917670;28;20139;-80
2023/06/19 10:09:22;;;;;;;10.35;9.10;;;;;;;;;;4933092;28;20639;-81
2023/06/19 10:11:52;;;;;;;9.63;8.32;;;;;;;;;;4905899;28;20036;-81
2023/06/19 10:14:21;;;;;;;9.52;8.52;;;;;;;;;;4928824;28;20049;-82
2023/06/19 10:16:47;;;;;;;11.05;9.05;;;;;;;;;;4928834;28;20059;-81
2023/06/19 10:19:17;;;;;;;9.63;8.63;;;;;;;;;;4904465;28;20508;-81
2023/06/19 10:21:48;;;;;;;10.02;8.48;;;;;;;;;;4904247;28;20256;-81
2023/06/19 10:24:26;;;;;;;10.60;9.18;;;;;;;;;;4929971;28;20084;-81
2023/06/19 10:26:59;;;;;;;11.98;9.02;;;;;;;;;;4929647;28;20079;-82
2023/06/19 10:29:25;;;;;;;10.00;9.00;;;;;;;;;;4918781;29;20035;-82
2023/06/19 10:31:51;;;;;;;10.37;9.07;;;;;;;;;;4920535;28;20046;-80
2023/06/19 10:34:16;;;;;;;10.77;8.40;;;;;;;;;;4914127;28;20485;-81
2023/06/19 10:36:44;;;;;;;9.50;8.50;;;;;;;;;;4913942;28;20118;-82
2023/06/19 10:39:12;;;;;;;10.35;8.38;;;;;;;;;;4917917;28;20049;-82
2023/06/19 10:41:41;;;;;;;8.60;7.70;;;;;;;;;;4916324;28;20567;-80
2023/06/19 10:44:13;;;;;;;9.07;8.15;;;;;;;;;;4933443;28;20060;-82
2023/06/19 10:46:40;;;;;;;17.13;8.70;;;;;;;;;;4919400;28;20039;-82
2023/06/19 10:49:13;;;;;;;9.85;7.78;;;;;;;;;;4922133;28;20043;-81
2023/06/19 10:51:40;;;;;;;10.40;8.13;;;;;;;;;;4920297;28;20563;-83
2023/06/19 10:54:06;;;;;;;9.57;7.60;;;;;;;;;;4931489;28;20059;-82
2023/06/19 10:56:32;;;;;;;9.60;8.20;;;;;;;;;;4906384;28;20439;-82
2023/06/19 10:58:58;;;;;;;9.68;7.45;;;;;;;;;;4900936;29;20122;-83
2023/06/19 11:01:37;;;;;;;9.43;7.38;;;;;;;;;;4923872;29;20039;-82
2023/06/19 11:04:07;;;;;;;8.57;7.68;;;;;;;;;;4937780;28;20128;-81
2023/06/19 11:06:33;;;;;;;11.80;7.57;;;;;;;;;;4908969;28;20047;-81
2023/06/19 11:09:00;;;;;;;11.90;7.72;;;;;;;;;;4939344;28;20036;-82
2023/06/19 11:11:38;;;;;;;10.50;7.90;;;;;;;;;;4917882;28;20046;-82
2023/06/19 11:14:15;;;;;;;8.77;7.63;;;;;;;;;;4931197;28;20474;-82
2023/06/19 11:16:42;;;;;;;9.32;7.50;;;;;;;;;;4931523;28;20035;-82
2023/06/19 11:19:09;;;;;;;9.40;7.93;;;;;;;;;;4927269;28;20051;-82
2023/06/19 11:21:39;;;;;;;13.13;8.10;;;;;;;;;;4912525;28;20369;-82
2023/06/19 11:24:06;;;;;;;10.27;7.25;;;;;;;;;;4932495;28;21188;-82
2023/06/19 11:26:50;;;;;;;8.65;7.50;;;;;;;;;;4923644;28;20114;-82
2023/06/19 11:29:25;;;;;;;16.25;7.70;;;;;;;;;;4921407;28;20047;-81
2023/06/19 11:31:53;;;;;;;9.05;7.32;;;;;;;;;;4919488;28;20031;-81
2023/06/19 11:34:30;;;;;;;14.52;8.25;;;;;;;;;;4907236;28;20032;-82
2023/06/19 11:36:56;;;;;;;;;;;;;;;;;;4919859;29;20111;-84
2023/06/19 11:39:21;;;;;;;8.02;7.07;;;;;;;;;;4911350;28;19918;-81
2023/06/19 11:41:47;;;;;;;9.77;7.40;;;;;;;;;;4912227;28;21548;-81
2023/06/19 11:44:13;;;;;;;8.38;7.07;;;;;;;;;;4909233;28;20439;-81
2023/06/19 11:46:38;;;;;;;8.30;7.38;;;;;;;;;;4918890;28;20119;-83
2023/06/19 11:49:16;;;;;;;8.63;7.13;;;;;;;;;;4916198;28;20099;-82
2023/06/19 11:51:42;;;;;;;8.18;6.40;;;;;;;;;;4903298;28;20084;-82
2023/06/19 11:54:12;;;;;;;8.35;7.00;;;;;;;;;;4918568;28;20044;-82
2023/06/19 11:56:38;;;;;;;7.57;6.78;;;;;;;;;;4909476;28;20153;-82
2023/06/19 11:59:04;;;;;;;9.32;7.03;;;;;;;;;;4923083;28;20047;-82
2023/06/19 12:01:31;;;;;;;7.75;6.57;;;;;;;;;;4917095;28;20103;-82
2023/06/19 12:03:57;;;;;;;7.43;6.40;;;;;;;;;;4923410;29;20499;-82
2023/06/19 12:06:23;;;;;;;8.57;7.68;;;;;;;;;;4909963;29;20079;-82
2023/06/19 12:08:48;;;;;;;7.55;6.68;;;;;;;;;;4907019;28;20419;-82
2023/06/19 12:11:16;;;;;;;7.70;6.70;;;;;;;;;;4911163;28;20107;-82
2023/06/19 12:13:42;;;;;;;9.13;6.80;;;;;;;;;;4916202;28;20039;-82
2023/06/19 12:16:09;;;;;;;7.65;6.47;;;;;;;;;;4900687;29;20039;-82
2023/06/19 12:18:35;;;;;;;8.68;6.30;;;;;;;;;;4921289;28;20039;-81
2023/06/19 12:21:11;;;;;;;7.95;5.97;;;;;;;;;;4912256;28;20831;-83
2023/06/19 12:23:36;;;;;;;7.47;6.57;;;;;;;;;;4916729;28;20058;-82
2023/06/19 12:26:01;;;;;;;10.73;6.10;;;;;;;;;;4920978;28;20139;-81
2023/06/19 12:28:30;;;;;;;7.30;6.00;;;;;;;;;;4905675;29;20122;-82
2023/06/19 12:30:56;;;;;;;6.97;5.97;;;;;;;;;;4905829;29;20040;-83
2023/06/19 12:33:21;;;;;;;6.57;5.18;;;;;;;;;;4916082;29;20046;-83
2023/06/19 12:35:47;;;;;;;6.30;5.50;;;;;;;;;;4920308;28;20040;-83
2023/06/19 12:38:13;;;;;;;6.65;5.50;;;;;;;;;;4921667;28;20035;-83
2023/06/19 12:40:39;;;;;;;6.88;5.80;;;;;;;;;;4919117;28;20047;-82
2023/06/19 12:43:07;;;;;;;6.80;6.05;;;;;;;;;;4924929;28;20070;-81
2023/06/19 12:45:33;;;;;;;7.85;6.55;;;;;;;;;;4894436;28;20046;-81
2023/06/19 12:47:58;;;;;;;7.43;6.47;;;;;;;;;;4921498;28;20538;-82
2023/06/19 12:50:24;;;;;;;8.60;6.68;;;;;;;;;;4910782;28;20373;-81
2023/06/19 12:52:50;;;;;;;7.25;6.47;;;;;;;;;;4905010;28;20468;-83
2023/06/19 12:55:16;;;;;;;7.28;6.43;;;;;;;;;;4918923;28;20046;-83
2023/06/19 12:57:44;;;;;;;7.90;6.65;;;;;;;;;;4933634;28;20032;-82
2023/06/19 13:00:12;;;;;;;8.45;7.03;;;;;;;;;;4907914;28;20080;-82
2023/06/19 13:02:42;;;;;;;7.35;6.18;;;;;;;;;;4916217;28;20044;-82
2023/06/19 13:05:11;;;;;;;8.38;6.50;;;;;;;;;;4904734;28;20071;-82
2023/06/19 13:07:36;;;;;;;7.50;6.70;;;;;;;;;;4911254;28;20043;-82
2023/06/19 13:10:03;;;;;;;7.65;6.85;;;;;;;;;;4909342;28;20035;-83
2023/06/19 13:12:34;;;;;;;8.50;7.15;;;;;;;;;;4918762;28;20052;-83
2023/06/19 13:15:00;;;;;;;9.02;7.07;;;;;;;;;;4899830;28;20429;-81
2023/06/19 13:17:25;;;;;;;7.60;6.80;;;;;;;;;;4911153;29;20146;-82
2023/06/19 13:19:53;;;;;;;8.52;6.80;;;;;;;;;;4913623;28;20759;-82
2023/06/19 13:22:18;;;;;;;7.72;6.93;;;;;;;;;;4914864;28;20101;-83
2023/06/19 13:24:44;;;;;;;7.63;6.55;;;;;;;;;;4919218;28;20043;-81
2023/06/19 13:27:09;;;;;;;8.55;7.60;;;;;;;;;;4914216;28;20040;-82
2023/06/19 13:29:35;;;;;;;8.23;7.38;;;;;;;;;;4916665;28;20387;-82
2023/06/19 13:32:01;;;;;;;7.85;6.70;;;;;;;;;;4907998;28;20133;-83
2023/06/19 13:34:26;;;;;;;7.73;6.93;;;;;;;;;;4916786;29;20046;-84
2023/06/19 13:36:52;;;;;;;8.05;6.53;;;;;;;;;;4908284;29;20036;-83
2023/06/19 13:39:20;;;;;;;7.10;6.40;;;;;;;;;;4916603;28;20114;-82
2023/06/19 13:41:46;;;;;;;7.60;6.22;;;;;;;;;;4901899;28;20038;-83
2023/06/19 13:44:12;;;;;;;7.57;6.65;;;;;;;;;;4908177;29;20040;-83
2023/06/19 13:46:40;;;;;;;6.97;6.28;;;;;;;;;;4918400;28;20131;-83
2023/06/19 13:49:05;;;;;;;7.18;6.28;;;;;;;;;;4931540;28;20567;-82
2023/06/19 13:51:31;;;;;;;7.78;6.97;;;;;;;;;;4911514;28;20045;-83
2023/06/19 13:53:59;;;;;;;9.90;7.03;;;;;;;;;;4902805;29;20047;-83
2023/06/19 13:56:24;;;;;;;7.88;6.70;;;;;;;;;;4898945;29;20126;-83
2023/06/19 13:58:50;;;;;;;8.25;6.50;;;;;;;;;;4915076;29;20123;-83
2023/06/19 14:01:21;;;;;;;7.72;6.60;;;;;;;;;;4914059;28;20044;-83
2023/06/19 14:03:47;;;;;;;8.38;6.45;;;;;;;;;;4927955;28;20039;-83
2023/06/19 14:06:13;;;;;;;8.13;6.82;;;;;;;;;;4906679;29;20056;-83
2023/06/19 14:08:41;;;;;;;8.82;6.45;;;;;;;;;;4921484;28;20102;-83
2023/06/19 14:11:06;;;;;;;8.55;7.10;;;;;;;;;;4930537;28;20040;-83
2023/06/19 14:13:32;;;;;;;8.25;6.97;;;;;;;;;;4933152;28;20530;-83
2023/06/19 14:15:58;;;;;;;8.27;6.82;;;;;;;;;;4916173;28;20047;-83
2023/06/19 14:18:23;;;;;;;8.20;7.30;;;;;;;;;;4911313;29;20395;-82
2023/06/19 14:20:54;;;;;;;7.30;6.53;;;;;;;;;;4922278;28;20035;-83
2023/06/19 14:23:19;;;;;;;7.20;6.47;;;;;;;;;;4922060;28;20518;-82
2023/06/19 14:25:45;;;;;;;7.38;6.63;;;;;;;;;;4918781;28;20117;-83
2023/06/19 14:28:10;;;;;;;8.02;6.90;;;;;;;;;;4928460;28;20502;-82
2023/06/19 14:30:36;;;;;;;7.10;6.35;;;;;;;;;;4917360;28;20063;-83
2023/06/19 14:33:01;;;;;;;7.90;7.10;;;;;;;;;;4919909;28;20154;-81
2023/06/19 14:35:27;;;;;;;8.25;7.10;;;;;;;;;;4922158;28;20082;-82
2023/06/19 14:37:52;;;;;;;8.82;6.82;;;;;;;;;;4921029;29;20554;-81